createdAt,value
2023-07-25T00:01:06.041Z,22.03
2023-07-25T00:03:33.359Z,21.98
2023-07-25T00:06:03.143Z,22.00
2023-07-25T00:08:30.261Z,22.03
2023-07-25T00:10:57.942Z,22.04
2023-07-25T00:13:25.327Z,22.04
2023-07-25T00:15:52.974Z,22.00
2023-07-25T00:18:20.020Z,22.01
2023-07-25T00:20:46.893Z,22.01
2023-07-25T00:23:15.271Z,21.97
2023-07-25T00:25:42.230Z,22.00
2023-07-25T00:28:09.213Z,21.98
2023-07-25T00:30:36.097Z,21.98
2023-07-25T00:33:03.177Z,21.86
2023-07-25T00:35:30.079Z,21.94
2023-07-25T00:37:57.036Z,21.97
2023-07-25T00:40:25.411Z,21.90
2023-07-25T00:42:55.412Z,21.93
2023-07-25T00:45:23.526Z,21.93
2023-07-25T00:47:51.168Z,21.89
2023-07-25T00:50:18.726Z,21.92
2023-07-25T00:53:11.070Z,21.86
2023-07-25T00:55:39.950Z,21.87
2023-07-25T00:58:06.986Z,21.90
2023-07-25T01:00:34.043Z,21.89
2023-07-25T01:03:01.310Z,21.86
2023-07-25T01:05:34.492Z,21.89
2023-07-25T01:08:02.106Z,21.84
2023-07-25T01:10:29.046Z,21.87
2023-07-25T01:12:57.613Z,21.90
2023-07-25T01:15:25.999Z,21.93
2023-07-25T01:17:53.435Z,21.94
2023-07-25T01:20:21.182Z,21.93
2023-07-25T01:22:50.630Z,21.90
2023-07-25T01:25:19.014Z,21.90
2023-07-25T01:27:46.072Z,21.92
2023-07-25T01:30:13.319Z,21.94
2023-07-25T01:32:40.474Z,21.94
2023-07-25T01:35:08.760Z,21.90
2023-07-25T01:37:35.917Z,21.84
2023-07-25T01:40:03.617Z,21.87
2023-07-25T01:42:32.450Z,21.89
2023-07-25T01:44:59.792Z,21.87
2023-07-25T01:47:27.243Z,21.82
2023-07-25T01:49:55.085Z,21.72
2023-07-25T01:52:23.168Z,21.76
2023-07-25T01:54:54.418Z,21.69
2023-07-25T01:57:21.533Z,21.69
2023-07-25T01:59:50.090Z,21.72
2023-07-25T02:02:17.017Z,21.72
2023-07-25T02:04:44.183Z,21.70
2023-07-25T02:07:11.369Z,21.79
2023-07-25T02:09:38.255Z,21.84
2023-07-25T02:12:07.621Z,21.92
2023-07-25T02:14:34.824Z,21.89
2023-07-25T02:17:03.409Z,21.89
2023-07-25T02:19:30.502Z,21.96
2023-07-25T02:21:57.623Z,21.94
2023-07-25T02:24:24.738Z,21.98
2023-07-25T02:26:51.936Z,22.00
2023-07-25T02:29:18.967Z,22.01
2023-07-25T02:31:45.980Z,22.00
2023-07-25T02:34:16.192Z,22.04
2023-07-25T02:36:43.330Z,22.07
2023-07-25T02:39:10.203Z,22.00
2023-07-25T02:41:37.456Z,22.04
2023-07-25T02:44:30.103Z,21.92
2023-07-25T02:46:57.159Z,21.97
2023-07-25T02:49:25.434Z,22.00
2023-07-25T02:51:52.682Z,22.00
2023-07-25T02:54:19.918Z,22.03
2023-07-25T02:56:46.986Z,22.04
2023-07-25T02:59:14.032Z,21.98
2023-07-25T03:01:41.208Z,22.03
2023-07-25T03:04:08.158Z,22.04
2023-07-25T03:06:36.814Z,22.10
2023-07-25T03:09:03.780Z,22.13
2023-07-25T03:11:31.620Z,22.14
2023-07-25T03:13:58.803Z,22.14
2023-07-25T03:16:26.054Z,22.21
2023-07-25T03:18:53.348Z,22.25
2023-07-25T03:21:20.291Z,22.18
2023-07-25T03:23:48.711Z,22.15
2023-07-25T03:26:15.869Z,22.21
2023-07-25T03:28:42.891Z,22.22
2023-07-25T03:31:10.027Z,22.18
2023-07-25T03:33:37.002Z,22.24
2023-07-25T03:36:05.504Z,22.27
2023-07-25T03:38:32.571Z,22.35
2023-07-25T03:41:01.078Z,22.35
2023-07-25T03:43:28.022Z,22.40
2023-07-25T03:45:55.155Z,22.34
2023-07-25T03:48:22.078Z,22.28
2023-07-25T03:50:49.201Z,22.17
2023-07-25T03:53:16.318Z,22.08
2023-07-25T03:55:43.389Z,22.00
2023-07-25T03:58:14.117Z,21.98
2023-07-25T04:00:41.318Z,21.93
2023-07-25T04:03:15.521Z,21.90
2023-07-25T04:05:43.794Z,21.87
2023-07-25T04:08:11.074Z,21.82
2023-07-25T04:10:38.151Z,21.74
2023-07-25T04:13:05.486Z,21.79
2023-07-25T04:15:33.810Z,21.83
2023-07-25T04:18:03.824Z,21.90
2023-07-25T04:20:33.629Z,21.93
2023-07-25T04:23:01.969Z,21.90
2023-07-25T04:25:29.019Z,21.84
2023-07-25T04:27:57.916Z,21.87
2023-07-25T04:30:25.241Z,21.96
2023-07-25T04:32:53.547Z,22.05
2023-07-25T04:35:20.762Z,22.14
2023-07-25T04:37:47.795Z,22.13
2023-07-25T04:40:15.008Z,22.20
2023-07-25T04:42:41.932Z,22.22
2023-07-25T04:45:11.354Z,22.20
2023-07-25T04:47:38.413Z,22.14
2023-07-25T04:50:07.706Z,22.13
2023-07-25T04:53:00.236Z,22.11
2023-07-25T04:55:27.474Z,22.10
2023-07-25T04:57:56.061Z,22.04
2023-07-25T05:00:23.433Z,22.01
2023-07-25T05:02:51.334Z,22.01
2023-07-25T05:05:20.982Z,22.05
2023-07-25T05:07:47.879Z,21.97
2023-07-25T05:10:15.006Z,22.03
2023-07-25T05:12:42.012Z,22.07
2023-07-25T05:15:09.643Z,22.01
2023-07-25T05:17:36.532Z,22.04
2023-07-25T05:20:04.272Z,22.13
2023-07-25T05:22:32.549Z,22.18
2023-07-25T05:24:59.479Z,22.24
2023-07-25T05:27:26.504Z,22.34
2023-07-25T05:29:53.511Z,22.42
2023-07-25T05:32:22.668Z,22.42
2023-07-25T05:34:50.057Z,22.40
2023-07-25T05:37:19.366Z,22.37
2023-07-25T05:39:47.742Z,22.41
2023-07-25T05:42:14.698Z,22.34
2023-07-25T05:44:41.839Z,22.37
2023-07-25T05:47:08.974Z,22.34
2023-07-25T05:49:35.840Z,22.41
2023-07-25T05:52:03.189Z,22.54
2023-07-25T05:54:30.204Z,22.49
2023-07-25T05:56:58.536Z,22.59
2023-07-25T06:02:16.902Z,22.47
2023-07-25T06:04:44.009Z,22.45
2023-07-25T06:10:02.775Z,22.54
2023-07-25T06:12:31.897Z,22.65
2023-07-25T06:14:59.048Z,22.71
2023-07-25T06:17:26.177Z,22.68
2023-07-25T06:19:53.196Z,22.77
2023-07-25T06:22:20.267Z,22.88
2023-07-25T06:24:48.116Z,22.93
2023-07-25T06:27:15.215Z,23.06
2023-07-25T06:29:43.420Z,23.23
2023-07-25T06:32:10.518Z,23.26
2023-07-25T06:34:37.411Z,23.27
2023-07-25T06:37:05.523Z,23.39
2023-07-25T06:39:32.522Z,23.61
2023-07-25T06:41:59.607Z,23.75
2023-07-25T06:44:29.160Z,24.02
2023-07-25T06:46:57.582Z,24.35
2023-07-25T06:49:24.595Z,24.69
2023-07-25T06:51:51.779Z,25.02
2023-07-25T06:54:18.832Z,25.28
2023-07-25T06:56:45.958Z,25.61
2023-07-25T06:59:13.359Z,25.77
2023-07-25T07:01:40.292Z,25.98
2023-07-25T07:04:08.714Z,26.25
2023-07-25T07:06:35.856Z,26.51
2023-07-25T07:09:02.997Z,26.71
2023-07-25T07:11:30.379Z,26.80
2023-07-25T07:13:57.574Z,26.86
2023-07-25T07:16:24.609Z,26.77
2023-07-25T07:18:51.955Z,26.65
2023-07-25T07:21:20.372Z,26.80
2023-07-25T07:23:47.802Z,27.04
2023-07-25T07:26:15.848Z,27.38
2023-07-25T07:28:43.655Z,27.65
2023-07-25T07:31:10.823Z,27.89
2023-07-25T07:33:37.915Z,28.00
2023-07-25T07:36:05.871Z,27.97
2023-07-25T07:38:34.188Z,27.93
2023-07-25T07:41:01.180Z,27.82
2023-07-25T07:43:28.348Z,27.79
2023-07-25T07:45:58.067Z,27.82
2023-07-25T07:48:25.287Z,27.92
2023-07-25T07:50:52.527Z,27.99
2023-07-25T07:53:19.506Z,28.00
2023-07-25T07:55:47.932Z,27.96
2023-07-25T07:58:14.889Z,27.88
2023-07-25T08:00:42.093Z,27.73
2023-07-25T08:03:09.185Z,27.51
2023-07-25T08:05:36.284Z,27.21
2023-07-25T08:08:10.313Z,27.00
2023-07-25T08:10:37.745Z,26.87
2023-07-25T08:13:06.390Z,26.86
2023-07-25T08:15:33.666Z,26.80
2023-07-25T08:18:00.839Z,26.97
2023-07-25T08:20:28.187Z,27.08
2023-07-25T08:22:55.239Z,26.98
2023-07-25T08:25:22.182Z,27.02
2023-07-25T08:27:49.281Z,26.92
2023-07-25T08:30:17.680Z,26.83
2023-07-25T08:32:45.252Z,26.83
2023-07-25T08:35:12.457Z,27.12
2023-07-25T08:37:39.318Z,27.51
2023-07-25T08:40:09.044Z,28.10
2023-07-25T08:42:38.316Z,28.63
2023-07-25T08:45:07.515Z,29.35
2023-07-25T08:47:41.185Z,30.23
2023-07-25T08:53:13.725Z,31.40
2023-07-25T08:55:41.826Z,31.26
2023-07-25T08:58:09.638Z,30.78
2023-07-25T09:00:37.284Z,30.03
2023-07-25T09:03:07.522Z,29.36
2023-07-25T09:05:34.939Z,28.82
2023-07-25T09:08:02.056Z,28.51
2023-07-25T09:10:30.064Z,28.33
2023-07-25T09:12:57.221Z,28.21
2023-07-25T09:15:24.685Z,28.12
2023-07-25T09:17:54.875Z,27.96
2023-07-25T09:20:24.339Z,27.74
2023-07-25T09:22:51.576Z,27.59
2023-07-25T09:25:18.696Z,27.42
2023-07-25T09:27:46.235Z,27.21
2023-07-25T09:30:14.881Z,27.15
2023-07-25T09:32:46.689Z,27.15
2023-07-25T09:35:14.069Z,27.20
2023-07-25T09:37:43.516Z,27.24
2023-07-25T09:40:12.542Z,27.34
2023-07-25T09:42:44.011Z,27.73
2023-07-25T09:45:13.108Z,28.47
2023-07-25T09:47:40.344Z,29.26
2023-07-25T09:50:08.187Z,29.84
2023-07-25T09:53:02.871Z,30.23
2023-07-25T09:55:29.849Z,30.38
2023-07-25T09:57:56.899Z,30.47
2023-07-25T10:00:24.355Z,30.96
2023-07-25T10:02:52.662Z,31.77
2023-07-25T10:05:20.682Z,32.38
2023-07-25T10:07:49.634Z,32.48
2023-07-25T10:10:19.143Z,32.32
2023-07-25T10:12:46.667Z,31.77
2023-07-25T10:15:14.219Z,31.41
2023-07-25T10:17:41.357Z,30.93
2023-07-25T10:20:11.704Z,30.31
2023-07-25T10:22:42.340Z,29.86
2023-07-25T10:25:11.138Z,29.50
2023-07-25T10:27:40.536Z,29.49
2023-07-25T10:30:23.790Z,29.73
2023-07-25T10:32:52.593Z,30.25
2023-07-25T10:35:40.392Z,31.29
2023-07-25T10:38:13.487Z,31.85
2023-07-25T10:40:58.177Z,32.49
2023-07-25T10:43:30.811Z,33.14
2023-07-25T10:46:01.855Z,33.46
2023-07-25T10:48:44.317Z,33.87
2023-07-25T10:51:11.841Z,34.52
2023-07-25T10:53:39.512Z,34.76
2023-07-25T10:56:18.008Z,34.25
2023-07-25T10:59:07.266Z,33.84
2023-07-25T11:01:43.474Z,34.11
2023-07-25T11:04:31.805Z,34.43
2023-07-25T11:07:10.527Z,34.80
2023-07-25T11:09:41.564Z,35.15
2023-07-25T11:12:11.061Z,35.42
2023-07-25T11:14:45.216Z,35.59
2023-07-25T11:17:15.282Z,35.45
2023-07-25T11:19:42.437Z,35.44
2023-07-25T11:22:11.537Z,35.38
2023-07-25T11:24:43.107Z,35.14
2023-07-25T11:27:10.500Z,34.74
2023-07-25T11:29:37.653Z,34.76
2023-07-25T11:32:07.957Z,34.79
2023-07-25T11:34:35.230Z,34.83
2023-07-25T11:37:10.573Z,34.71
2023-07-25T11:39:37.709Z,34.59
2023-07-25T11:42:07.711Z,34.25
2023-07-25T11:44:34.919Z,34.12
2023-07-25T11:47:02.337Z,33.81
2023-07-25T11:49:47.917Z,33.34
2023-07-25T11:52:18.189Z,33.23
2023-07-25T11:54:45.256Z,33.07
2023-07-25T11:57:12.849Z,33.10
2023-07-25T11:59:40.672Z,33.35
2023-07-25T12:02:08.800Z,33.19
2023-07-25T12:04:45.708Z,32.86
2023-07-25T12:07:13.661Z,32.58
2023-07-25T12:09:49.049Z,32.39
2023-07-25T12:12:16.506Z,32.59
2023-07-25T12:14:55.114Z,33.19
2023-07-25T12:17:22.207Z,33.74
2023-07-25T12:19:54.917Z,33.82
2023-07-25T12:22:21.972Z,33.64
2023-07-25T12:24:49.081Z,33.47
2023-07-25T12:27:18.065Z,33.72
2023-07-25T12:29:46.438Z,34.26
2023-07-25T12:32:13.985Z,34.52
2023-07-25T12:34:41.344Z,34.66
2023-07-25T12:37:09.696Z,34.82
2023-07-25T12:39:36.858Z,34.90
2023-07-25T12:42:04.569Z,35.13
2023-07-25T12:44:32.360Z,35.44
2023-07-25T12:46:59.680Z,35.78
2023-07-25T12:49:26.724Z,36.11
2023-07-25T12:51:53.885Z,36.29
2023-07-25T12:54:22.589Z,36.57
2023-07-25T12:56:49.695Z,36.49
2023-07-25T12:59:22.334Z,36.26
2023-07-25T13:01:50.166Z,35.78
2023-07-25T13:04:17.568Z,35.17
2023-07-25T13:06:45.563Z,34.71
2023-07-25T13:09:12.568Z,34.67
2023-07-25T13:11:41.251Z,34.60
2023-07-25T13:14:08.651Z,34.90
2023-07-25T13:16:35.873Z,35.31
2023-07-25T13:19:03.249Z,35.59
2023-07-25T13:21:31.275Z,35.64
2023-07-25T13:23:58.457Z,35.44
2023-07-25T13:26:25.813Z,34.93
2023-07-25T13:28:54.303Z,34.78
2023-07-25T13:31:21.394Z,34.53
2023-07-25T13:33:48.679Z,34.31
2023-07-25T13:36:15.809Z,34.38
2023-07-25T13:38:43.039Z,34.53
2023-07-25T13:41:10.421Z,34.90
2023-07-25T13:43:44.835Z,35.15
2023-07-25T13:46:15.539Z,35.14
2023-07-25T13:48:43.020Z,35.00
2023-07-25T13:51:10.423Z,35.13
2023-07-25T13:53:37.632Z,35.23
2023-07-25T13:56:05.371Z,35.30
2023-07-25T13:58:32.799Z,35.29
2023-07-25T14:01:00.622Z,34.66
2023-07-25T14:03:31.471Z,33.81
2023-07-25T14:05:58.834Z,33.20
2023-07-25T14:08:26.145Z,32.62
2023-07-25T14:10:53.210Z,32.42
2023-07-25T14:13:20.174Z,32.48
2023-07-25T14:15:47.261Z,32.58
2023-07-25T14:18:14.398Z,32.60
2023-07-25T14:20:42.901Z,32.66
2023-07-25T14:23:10.008Z,32.60
2023-07-25T14:25:37.215Z,32.51
2023-07-25T14:28:04.808Z,32.48
2023-07-25T14:30:32.049Z,32.63
2023-07-25T14:32:59.309Z,33.04
2023-07-25T14:35:26.760Z,33.54
2023-07-25T14:37:57.319Z,33.70
2023-07-25T14:40:26.429Z,33.84
2023-07-25T14:42:53.465Z,34.15
2023-07-25T14:45:20.638Z,34.15
2023-07-25T14:50:44.817Z,33.54
2023-07-25T14:53:13.326Z,33.34
2023-07-25T14:55:40.225Z,33.07
2023-07-25T14:58:09.823Z,33.14
2023-07-25T15:00:36.814Z,33.33
2023-07-25T15:03:04.679Z,33.55
2023-07-25T15:05:31.907Z,33.27
2023-07-25T15:07:59.494Z,33.06
2023-07-25T15:10:28.615Z,32.68
2023-07-25T15:12:55.946Z,32.46
2023-07-25T15:15:22.967Z,32.29
2023-07-25T15:17:49.962Z,32.25
2023-07-25T15:20:18.327Z,32.15
2023-07-25T15:22:45.245Z,31.91
2023-07-25T15:25:12.200Z,31.78
2023-07-25T15:27:40.482Z,31.77
2023-07-25T15:30:09.104Z,31.89
2023-07-25T15:32:36.098Z,31.88
2023-07-25T15:35:07.790Z,31.70
2023-07-25T15:37:34.579Z,31.61
2023-07-25T15:40:01.717Z,31.43
2023-07-25T15:42:30.112Z,31.41
2023-07-25T15:44:58.644Z,31.37
2023-07-25T15:47:25.734Z,31.22
2023-07-25T15:49:53.136Z,30.96
2023-07-25T15:52:20.332Z,30.90
2023-07-25T15:54:47.391Z,30.96
2023-07-25T15:57:14.344Z,30.90
2023-07-25T15:59:41.413Z,30.61
2023-07-25T16:02:09.685Z,30.49
2023-07-25T16:04:36.737Z,30.35
2023-07-25T16:07:09.890Z,30.32
2023-07-25T16:09:37.074Z,30.32
2023-07-25T16:12:04.875Z,30.38
2023-07-25T16:14:31.834Z,30.41
2023-07-25T16:16:58.967Z,30.17
2023-07-25T16:19:27.236Z,29.93
2023-07-25T16:21:54.326Z,29.81
2023-07-25T16:24:21.276Z,29.77
2023-07-25T16:26:48.161Z,29.74
2023-07-25T16:29:15.450Z,29.45
2023-07-25T16:31:42.459Z,29.33
2023-07-25T16:34:09.903Z,29.18
2023-07-25T16:36:38.302Z,29.26
2023-07-25T16:39:06.816Z,29.26
2023-07-25T16:41:34.118Z,29.29
2023-07-25T16:44:01.331Z,29.23
2023-07-25T16:46:28.378Z,29.09
2023-07-25T16:48:55.422Z,28.98
2023-07-25T16:51:23.332Z,28.82
2023-07-25T16:53:52.701Z,28.84
2023-07-25T16:56:19.754Z,28.60
2023-07-25T16:58:46.686Z,28.25
2023-07-25T17:01:13.754Z,28.00
2023-07-25T17:03:40.820Z,28.03
2023-07-25T17:06:07.972Z,27.97
2023-07-25T17:08:34.948Z,27.66
2023-07-25T17:11:05.406Z,27.43
2023-07-25T17:13:32.636Z,27.24
2023-07-25T17:15:59.803Z,27.25
2023-07-25T17:18:27.086Z,27.31
2023-07-25T17:20:54.358Z,27.28
2023-07-25T17:23:21.560Z,27.24
2023-07-25T17:25:48.506Z,27.25
2023-07-25T17:28:16.965Z,27.30
2023-07-25T17:30:44.281Z,27.34
2023-07-25T17:33:11.444Z,27.37
2023-07-25T17:35:38.623Z,27.22
2023-07-25T17:38:06.044Z,27.22
2023-07-25T17:40:33.217Z,27.10
2023-07-25T17:43:00.386Z,26.91
2023-07-25T17:45:28.790Z,26.81
2023-07-25T17:47:55.969Z,26.51
2023-07-25T17:53:15.127Z,26.18
2023-07-25T17:55:43.667Z,26.09
2023-07-25T17:58:10.850Z,26.05
2023-07-25T18:00:40.523Z,26.03
2023-07-25T18:03:08.024Z,25.98
2023-07-25T18:05:35.044Z,25.92
2023-07-25T18:08:02.227Z,25.90
2023-07-25T18:10:29.358Z,25.81
2023-07-25T18:12:56.565Z,25.74
2023-07-25T18:15:23.665Z,25.64
2023-07-25T18:17:51.967Z,25.57
2023-07-25T18:20:18.960Z,25.52
2023-07-25T18:22:46.037Z,25.49
2023-07-25T18:25:13.038Z,25.48
2023-07-25T18:27:40.491Z,25.44
2023-07-25T18:30:09.272Z,25.35
2023-07-25T18:32:36.217Z,25.21
2023-07-25T18:35:07.065Z,25.06
2023-07-25T18:37:34.160Z,24.69
2023-07-25T18:40:01.208Z,24.60
2023-07-25T18:42:28.157Z,24.51
2023-07-25T18:44:55.295Z,24.38
2023-07-25T18:47:33.790Z,24.30
2023-07-25T18:50:03.931Z,24.24
2023-07-25T18:52:31.072Z,24.22
2023-07-25T18:54:58.208Z,24.22
2023-07-25T18:57:25.372Z,24.22
2023-07-25T18:59:52.409Z,24.21
2023-07-25T19:02:19.873Z,24.19
2023-07-25T19:04:47.352Z,24.15
2023-07-25T19:10:08.258Z,24.04
2023-07-25T19:12:35.500Z,24.02
2023-07-25T19:15:02.650Z,23.89
2023-07-25T19:17:29.682Z,23.87
2023-07-25T19:19:56.941Z,23.82
2023-07-25T19:22:25.551Z,23.73
2023-07-25T19:24:52.682Z,23.71
2023-07-25T19:27:19.979Z,23.75
2023-07-25T19:29:47.025Z,23.68
2023-07-25T19:32:13.991Z,23.66
2023-07-25T19:34:41.035Z,23.58
2023-07-25T19:37:07.973Z,23.50
2023-07-25T19:39:36.467Z,23.43
2023-07-25T19:42:03.948Z,23.42
2023-07-25T19:44:31.314Z,23.37
2023-07-25T19:46:58.559Z,23.36
2023-07-25T19:49:25.753Z,23.37
2023-07-25T19:51:52.720Z,23.40
2023-07-25T19:54:20.208Z,23.40
2023-07-25T19:56:48.538Z,23.34
2023-07-25T19:59:15.894Z,23.23
2023-07-25T20:01:43.002Z,23.15
2023-07-25T20:04:09.968Z,23.09
2023-07-25T20:06:37.105Z,23.02
2023-07-25T20:09:04.610Z,22.99
2023-07-25T20:11:32.192Z,22.92
2023-07-25T20:14:00.881Z,22.88
2023-07-25T20:16:31.471Z,22.81
2023-07-25T20:19:00.510Z,22.77
2023-07-25T20:21:30.224Z,22.81
2023-07-25T20:23:59.096Z,22.75
2023-07-25T20:26:29.663Z,22.73
2023-07-25T20:28:57.776Z,22.81
2023-07-25T20:31:32.000Z,22.75
2023-07-25T20:34:02.854Z,22.66
2023-07-25T20:36:30.556Z,22.58
2023-07-25T20:39:00.432Z,22.54
2023-07-25T20:41:28.914Z,22.56
2023-07-25T20:43:55.883Z,22.58
2023-07-25T20:46:23.553Z,22.61
2023-07-25T20:48:51.813Z,22.62
2023-07-25T20:51:19.146Z,22.62
2023-07-25T20:53:49.316Z,22.64
2023-07-25T20:56:17.780Z,22.54
2023-07-25T20:58:44.791Z,22.51
2023-07-25T21:01:12.332Z,22.49
2023-07-25T21:03:41.328Z,22.45
2023-07-25T21:06:10.096Z,22.44
2023-07-25T21:08:37.402Z,22.45
2023-07-25T21:11:04.653Z,22.45
2023-07-25T21:13:31.996Z,22.49
2023-07-25T21:15:59.152Z,22.51
2023-07-25T21:18:26.138Z,22.51
2023-07-25T21:20:53.527Z,22.49
2023-07-25T21:23:22.265Z,22.49
2023-07-25T21:25:49.499Z,22.49
2023-07-25T21:28:42.184Z,22.48
2023-07-25T21:31:09.207Z,22.51
2023-07-25T21:33:36.260Z,22.54
2023-07-25T21:36:11.977Z,22.55
2023-07-25T21:38:42.617Z,22.51
2023-07-25T21:41:12.257Z,22.41
2023-07-25T21:43:42.558Z,22.38
2023-07-25T21:46:11.413Z,22.27
2023-07-25T21:48:38.467Z,22.17
2023-07-25T21:51:06.310Z,22.15
2023-07-25T21:53:34.164Z,22.20
2023-07-25T21:56:06.547Z,22.21
2023-07-25T21:58:34.009Z,22.14
2023-07-25T22:01:01.243Z,22.10
2023-07-25T22:03:33.540Z,22.11
2023-07-25T22:06:20.456Z,22.00
2023-07-25T22:08:49.854Z,21.92
2023-07-25T22:11:25.188Z,21.86
2023-07-25T22:13:52.747Z,21.73
2023-07-25T22:16:20.040Z,21.73
2023-07-25T22:18:52.483Z,21.70
2023-07-25T22:21:20.764Z,21.67
2023-07-25T22:23:49.071Z,21.59
2023-07-25T22:26:19.969Z,21.62
2023-07-25T22:28:48.422Z,21.63
2023-07-25T22:31:19.401Z,21.64
2023-07-25T22:33:46.479Z,21.62
2023-07-25T22:36:13.805Z,21.62
2023-07-25T22:38:42.664Z,21.64
2023-07-25T22:41:33.203Z,21.63
2023-07-25T22:44:01.822Z,21.54
2023-07-25T22:46:29.017Z,21.43
2023-07-25T22:48:56.190Z,21.38
2023-07-25T22:51:23.401Z,21.36
2023-07-25T22:53:50.716Z,21.41
2023-07-25T22:56:17.765Z,21.39
2023-07-25T22:58:44.964Z,21.38
2023-07-25T23:01:13.857Z,21.32
2023-07-25T23:03:41.051Z,21.31
2023-07-25T23:06:07.972Z,21.33
2023-07-25T23:08:34.986Z,21.38
2023-07-25T23:11:02.133Z,21.36
2023-07-25T23:13:29.185Z,21.29
2023-07-25T23:15:56.419Z,21.19
2023-07-25T23:18:24.908Z,21.12
2023-07-25T23:20:52.052Z,21.12
2023-07-25T23:23:19.027Z,21.05
2023-07-25T23:25:45.926Z,21.03
2023-07-25T23:28:38.006Z,21.02
2023-07-25T23:31:05.117Z,21.05
2023-07-25T23:33:33.456Z,21.03
2023-07-25T23:36:00.539Z,21.03
2023-07-25T23:38:28.570Z,21.06
2023-07-25T23:40:55.474Z,21.06
2023-07-25T23:43:22.407Z,21.01
2023-07-25T23:45:49.594Z,20.95
2023-07-25T23:48:18.162Z,20.91
2023-07-25T23:50:48.660Z,20.88
2023-07-25T23:53:15.713Z,20.88
2023-07-25T23:55:42.797Z,20.92
2023-07-25T23:58:09.917Z,20.87
